Time;durP1;ratioP1;P1;durP2;ratioP2;P2;SDS_P1;SDS_P2;PMS_P1;PMS_P2;Temp;Humidity;BMP_temperature;BMP_pressure;BME280_temperature;BME280_humidity;BME280_pressure;Samples;Min_cycle;Max_cycle;Signal;HPM_P1;HPM_P2
2021/04/19 00:00:25;;;;;;;13.94;9.12;;;;;;;7.74;66.89;99420.47;361711;109;1962027;-72
2021/04/19 00:01:31;;;;;;;16.79;10.02;;;;;;;7.74;66.94;99410.55;362216;109;1961979;-71
2021/04/19 00:02:37;;;;;;;15.02;9.93;;;;;;;7.74;66.91;99410.55;364272;109;1965033;-72
2021/04/19 00:03:43;;;;;;;15.27;9.27;;;;;;;7.74;66.93;99409.72;346635;112;1962070;-72
2021/04/19 00:04:49;;;;;;;13.15;8.16;;;;;;;7.76;67.11;99410.37;361108;109;1961938;-72
2021/04/19 00:05:54;;;;;;;14.38;8.38;;;;;;;7.75;67.16;99411.38;362354;111;1965014;-73
2021/04/19 00:07:01;;;;;;;13.05;7.41;;;;;;;7.75;67.11;99414.06;362258;109;1961979;-71
2021/04/19 00:08:07;;;;;;;12.44;7.56;;;;;;;7.74;67.27;99413.23;312604;111;2855969;-75
2021/04/19 00:09:12;;;;;;;11.63;7.14;;;;;;;7.74;67.25;99412.41;333722;109;1961985;-72
2021/04/19 00:10:20;;;;;;;11.82;6.42;;;;;;;7.75;67.20;99411.38;362261;109;1962000;-71
2021/04/19 00:11:25;;;;;;;12.32;7.11;;;;;;;7.73;67.32;99419.65;361119;111;1962012;-72
2021/04/19 00:12:32;;;;;;;11.71;7.17;;;;;;;7.76;67.43;99413.05;310054;111;2857974;-72
2021/04/19 00:13:38;;;;;;;13.09;7.15;;;;;;;7.76;67.50;99413.87;365334;111;1961007;-72
2021/04/19 00:14:43;;;;;;;11.16;7.38;;;;;;;7.78;67.38;99409.14;361287;111;1964968;-72
2021/04/19 00:15:48;;;;;;;14.21;7.81;;;;;;;7.80;67.35;99414.31;363900;109;1963913;-72
2021/04/19 00:16:55;;;;;;;14.20;7.83;;;;;;;7.80;67.20;99415.14;358836;110;1962011;-72
2021/04/19 00:18:01;;;;;;;11.44;6.99;;;;;;;7.82;67.18;99412.27;321311;111;2622959;-72
2021/04/19 00:19:07;;;;;;;11.77;6.89;;;;;;;7.81;67.03;99402.55;362081;109;1962059;-72
2021/04/19 00:20:14;;;;;;;13.59;8.15;;;;;;;7.90;66.90;99407.57;362682;110;1961994;-73
2021/04/19 00:21:19;;;;;;;13.54;7.79;;;;;;;7.84;66.86;99407.53;364053;109;1962077;-72
2021/04/19 00:22:25;;;;;;;13.11;8.17;;;;;;;7.80;66.90;99408.94;300257;116;2840958;-72
2021/04/19 00:23:31;;;;;;;13.14;8.24;;;;;;;7.80;66.91;99406.25;339552;109;1962052;-71
2021/04/19 00:24:36;;;;;;;13.28;8.16;;;;;;;7.77;67.03;99414.70;356509;109;1961836;-71
2021/04/19 00:25:42;;;;;;;11.37;6.76;;;;;;;7.77;66.94;99404.77;362519;109;1961937;-72
2021/04/19 00:26:47;;;;;;;13.44;8.08;;;;;;;7.77;66.99;99398.57;361841;109;1961902;-73
2021/04/19 00:27:54;;;;;;;11.89;7.57;;;;;;;7.77;66.94;99402.09;360618;110;1960874;-72
2021/04/19 00:29:00;;;;;;;11.27;7.44;;;;;;;7.74;67.05;99399.80;320237;109;2686974;-72
2021/04/19 00:30:07;;;;;;;10.61;6.54;;;;;;;7.76;66.95;99402.30;344986;109;1961899;-73
2021/04/19 00:31:14;;;;;;;10.00;6.20;;;;;;;7.75;67.09;99398.75;361481;109;1961926;-72
2021/04/19 00:32:20;;;;;;;10.72;6.11;;;;;;;7.75;67.19;99397.93;294303;113;2208520;-71
2021/04/19 00:33:25;;;;;;;11.33;6.23;;;;;;;7.74;67.19;99399.80;360296;109;1962015;-72
2021/04/19 00:34:31;;;;;;;8.69;5.67;;;;;;;7.68;67.19;99395.20;363403;110;1963937;-72
2021/04/19 00:35:36;;;;;;;9.57;5.58;;;;;;;7.68;67.39;99390.65;364481;110;1963904;-72
2021/04/19 00:36:43;;;;;;;10.53;5.84;;;;;;;7.71;67.46;99395.63;363464;109;1961998;-72
2021/04/19 00:38:00;;;;;;;11.66;6.39;;;;;;;7.69;67.41;99392.30;316765;109;2804988;-72
2021/04/19 00:39:05;;;;;;;11.14;6.56;;;;;;;7.73;67.47;99394.59;365017;110;1961961;-73
2021/04/19 00:40:14;;;;;;;12.79;6.92;;;;;;;7.76;67.28;99400.44;360736;111;1963020;-72
2021/04/19 00:41:21;;;;;;;10.77;6.59;;;;;;;7.77;67.35;99390.51;360340;112;1962020;-73
2021/04/19 00:42:26;;;;;;;11.45;6.12;;;;;;;7.75;67.46;99390.69;360344;112;1962979;-72
2021/04/19 00:43:32;;;;;;;12.01;6.46;;;;;;;7.76;67.38;99392.38;351866;113;1962012;-72
2021/04/19 00:44:37;;;;;;;11.58;6.59;;;;;;;7.76;67.31;99395.06;351577;112;1965967;-72
2021/04/19 00:45:44;;;;;;;11.34;6.82;;;;;;;7.78;67.17;99398.39;317327;112;2646955;-72
2021/04/19 00:46:50;;;;;;;11.19;6.57;;;;;;;7.77;67.17;99393.20;359970;110;1962988;-72
2021/04/19 00:47:56;;;;;;;10.39;5.88;;;;;;;7.77;67.16;99387.82;360629;112;1962914;-71
2021/04/19 00:49:03;;;;;;;10.39;5.68;;;;;;;7.76;67.09;99388.86;359915;112;1961996;-71
2021/04/19 00:50:12;;;;;;;12.20;6.38;;;;;;;7.75;67.20;99387.17;360837;112;1961958;-72
2021/04/19 00:51:18;;;;;;;9.62;6.03;;;;;;;7.78;67.09;99387.64;333053;112;1962024;-72
2021/04/19 00:52:24;;;;;;;9.47;5.78;;;;;;;8.00;66.55;99382.20;361256;112;1961959;-72
2021/04/19 00:53:30;;;;;;;10.67;6.02;;;;;;;7.90;66.71;99386.05;355892;112;1961949;-71
2021/04/19 00:54:36;;;;;;;9.42;5.45;;;;;;;7.90;66.61;99390.61;359601;110;1961944;-72
2021/04/19 00:55:41;;;;;;;9.38;4.74;;;;;;;8.04;66.27;99383.46;365815;110;1961030;-71
2021/04/19 00:56:49;;;;;;;9.79;6.27;;;;;;;8.06;66.20;99386.80;325663;112;1962002;-71
2021/04/19 00:57:54;;;;;;;9.81;5.67;;;;;;;8.06;66.16;99381.41;359727;112;1964036;-72
2021/04/19 00:58:59;;;;;;;9.42;5.67;;;;;;;8.07;66.03;99391.13;346531;117;1962051;-72
2021/04/19 01:00:10;;;;;;;9.17;5.61;;;;;;;8.04;66.05;99384.28;341898;117;1962008;-72
2021/04/19 01:01:17;;;;;;;8.16;5.10;;;;;;;8.04;66.04;99389.66;307497;116;2586961;-71
2021/04/19 01:02:23;;;;;;;9.42;4.95;;;;;;;8.08;66.01;99390.13;342024;116;1969924;-72
2021/04/19 01:03:29;;;;;;;9.87;5.46;;;;;;;8.08;65.98;99388.27;351713;113;1961964;-72
2021/04/19 01:04:34;;;;;;;7.99;4.68;;;;;;;8.10;65.93;99385.39;348708;116;1962056;-71
2021/04/19 01:05:45;;;;;;;9.13;5.31;;;;;;;8.11;66.03;99385.17;360432;112;1961949;-72
2021/04/19 01:06:53;;;;;;;8.09;4.78;;;;;;;8.13;65.93;99388.50;326971;112;2479998;-72
2021/04/19 01:07:59;;;;;;;7.97;4.86;;;;;;;8.17;65.76;99383.55;361077;112;1961897;-72
2021/04/19 01:09:06;;;;;;;10.68;4.74;;;;;;;8.18;65.65;99384.37;360136;111;1964996;-71
2021/04/19 01:10:12;;;;;;;9.66;5.13;;;;;;;8.20;65.70;99382.33;360494;112;1961943;-74
2021/04/19 01:11:19;;;;;;;8.90;4.87;;;;;;;8.20;65.76;99383.15;361050;112;1962006;-73
2021/04/19 01:12:25;;;;;;;9.10;4.57;;;;;;;8.22;65.52;99378.41;359754;112;1962969;-72
2021/04/19 01:13:31;;;;;;;8.24;4.62;;;;;;;8.22;65.45;99382.97;322458;112;2626096;-72
2021/04/19 01:14:36;;;;;;;7.99;4.76;;;;;;;8.22;65.59;99382.97;329999;112;1961824;-72
2021/04/19 01:15:41;;;;;;;10.05;5.29;;;;;;;8.22;65.43;99382.97;346290;112;1962073;-72
2021/04/19 01:16:49;;;;;;;8.75;4.91;;;;;;;8.19;65.52;99378.81;359652;111;1961075;-72
2021/04/19 01:17:56;;;;;;;8.65;4.62;;;;;;;8.20;65.53;99382.33;318911;112;2011765;-71
2021/04/19 01:19:02;;;;;;;9.02;5.30;;;;;;;8.19;65.46;99384.19;360813;112;1961962;-72
2021/04/19 01:20:09;;;;;;;9.20;5.26;;;;;;;8.17;65.49;99374.66;360351;112;1962001;-73
2021/04/19 01:21:15;;;;;;;9.07;5.32;;;;;;;8.17;65.48;99371.96;360860;112;1962013;-72
2021/04/19 01:22:21;;;;;;;9.03;4.47;;;;;;;8.15;65.59;99374.87;345873;113;1963003;-72
2021/04/19 01:23:27;;;;;;;10.31;5.36;;;;;;;8.14;65.57;99373.19;360332;112;1961968;-72
2021/04/19 01:24:34;;;;;;;8.68;4.83;;;;;;;8.12;65.53;99373.41;358704;110;1963843;-73
2021/04/19 01:25:40;;;;;;;9.91;5.47;;;;;;;8.11;65.56;99370.89;361072;112;1962004;-72
2021/04/19 01:26:46;;;;;;;15.42;10.09;;;;;;;8.09;65.54;99371.08;359149;111;1960981;-72
2021/04/19 01:27:54;;;;;;;14.84;9.44;;;;;;;8.07;65.23;99373.16;360916;112;1961963;-72
2021/04/19 01:29:00;;;;;;;15.04;10.48;;;;;;;8.04;65.08;99370.84;318862;112;2711123;-72
2021/04/19 01:30:08;;;;;;;19.48;12.55;;;;;;;7.99;65.06;99375.15;360074;112;1962026;-72
2021/04/19 01:31:15;;;;;;;21.02;14.82;;;;;;;7.92;65.09;99380.49;320142;112;2663065;-72
2021/04/19 01:32:20;;;;;;;20.86;13.49;;;;;;;7.85;65.28;99377.73;359369;111;1964058;-72
2021/04/19 01:33:27;;;;;;;25.00;16.67;;;;;;;7.81;65.42;99378.34;353515;114;1961940;-72
2021/04/19 01:34:33;;;;;;;24.61;16.16;;;;;;;7.77;65.59;99382.44;346326;115;1963976;-72
2021/04/19 01:35:40;;;;;;;19.45;12.71;;;;;;;7.72;65.89;99369.57;327693;115;1961982;-71
2021/04/19 01:36:47;;;;;;;15.57;9.98;;;;;;;7.67;66.03;99380.94;359991;112;1962012;-72
2021/04/19 01:37:55;;;;;;;19.71;12.23;;;;;;;7.67;66.28;99375.55;302357;111;2171545;-72
2021/04/19 01:39:16;;;;;;;11.97;7.47;;;;;;;7.64;66.29;99373.23;359870;112;1962097;-72
2021/04/19 01:40:23;;;;;;;11.55;7.23;;;;;;;7.60;66.60;99374.66;363528;108;1961962;-72
2021/04/19 01:41:29;;;;;;;11.74;6.42;;;;;;;7.61;66.62;99370.94;358771;108;1968956;-72
2021/04/19 01:42:35;;;;;;;9.26;5.52;;;;;;;7.60;66.66;99369.28;371660;108;1964071;-72
2021/04/19 01:43:40;;;;;;;8.71;5.26;;;;;;;7.62;66.86;99374.45;375734;106;1962029;-72
2021/04/19 01:44:46;;;;;;;8.62;4.97;;;;;;;7.66;66.90;99364.98;375452;106;1964020;-72
2021/04/19 01:45:53;;;;;;;9.88;5.36;;;;;;;7.71;67.04;99374.13;376645;106;1963940;-72
2021/04/19 01:47:00;;;;;;;9.14;5.83;;;;;;;7.76;66.88;99364.66;360866;107;1962096;-71
2021/04/19 01:48:07;;;;;;;7.89;4.48;;;;;;;7.79;66.60;99364.27;373780;106;1961994;-72
2021/04/19 01:49:16;;;;;;;8.22;4.10;;;;;;;7.78;66.57;99368.81;347921;106;1961884;-72
2021/04/19 01:50:27;;;;;;;8.88;4.48;;;;;;;7.84;66.43;99356.44;315045;112;2003648;-72
2021/04/19 01:51:33;;;;;;;10.55;5.81;;;;;;;7.89;66.24;99364.75;359672;109;1961018;-72
2021/04/19 01:52:39;;;;;;;10.39;5.69;;;;;;;7.90;66.04;99364.54;354312;108;1960737;-72
2021/04/19 01:53:44;;;;;;;8.76;4.62;;;;;;;7.91;66.12;99368.05;358667;113;1960838;-73
2021/04/19 01:54:49;;;;;;;7.91;4.87;;;;;;;7.91;66.10;99366.22;370023;108;1960820;-73
2021/04/19 01:55:55;;;;;;;10.26;5.04;;;;;;;7.91;66.18;99362.67;366549;110;1960798;-72
2021/04/19 01:57:00;;;;;;;9.63;5.56;;;;;;;7.92;66.02;99365.19;367635;108;1960754;-72
2021/04/19 01:58:22;;;;;;;9.49;5.72;;;;;;;7.92;66.00;99367.05;366229;108;1960898;-71
2021/04/19 01:59:29;;;;;;;10.11;5.58;;;;;;;7.90;65.97;99371.78;350789;107;1961685;-72
2021/04/19 02:00:41;;;;;;;10.04;5.62;;;;;;;7.92;66.04;99367.87;361485;108;1961741;-72
2021/04/19 02:01:58;;;;;;;12.57;7.02;;;;;;;7.92;65.86;99365.19;364985;108;1962036;-73
2021/04/19 02:03:22;;;;;;;12.73;8.00;;;;;;;7.92;65.82;99365.19;360272;109;1962091;-72
2021/04/19 02:04:48;;;;;;;11.76;7.24;;;;;;;7.92;65.80;99369.73;364191;109;1961890;-72
2021/04/19 02:06:06;;;;;;;11.50;6.56;;;;;;;7.87;65.84;99370.31;358537;111;1961966;-71
2021/04/19 02:07:32;;;;;;;11.44;6.78;;;;;;;7.85;65.95;99366.16;360971;109;1961958;-72
2021/04/19 02:08:42;;;;;;;13.07;7.18;;;;;;;7.82;65.93;99364.69;364715;109;1961993;-72
2021/04/19 02:10:07;;;;;;;11.21;6.04;;;;;;;7.80;65.92;99365.91;365533;109;1961935;-72
2021/04/19 02:11:42;;;;;;;10.04;5.81;;;;;;;7.81;65.98;99373.80;364927;109;1962012;-72
2021/04/19 02:13:09;;;;;;;13.61;6.61;;;;;;;7.81;65.99;99365.73;364434;111;1962060;-72
2021/04/19 02:14:26;;;;;;;12.55;7.78;;;;;;;7.84;66.09;99373.41;321720;107;2710039;-71
2021/04/19 02:15:44;;;;;;;12.72;7.01;;;;;;;7.84;65.94;99368.02;365520;109;1964053;-72
2021/04/19 02:16:57;;;;;;;11.82;7.45;;;;;;;7.82;66.08;99372.76;340984;107;1962017;-72
2021/04/19 02:18:44;;;;;;;12.28;6.59;;;;;;;7.79;65.92;99365.09;320797;108;2794991;-72
2021/04/19 02:20:03;;;;;;;13.41;7.69;;;;;;;7.80;66.12;99366.73;321034;108;2054134;-72
2021/04/19 02:21:13;;;;;;;12.00;7.39;;;;;;;7.79;66.08;99373.16;368333;107;1961953;-71
2021/04/19 02:22:25;;;;;;;12.12;7.54;;;;;;;7.76;66.12;99368.17;364272;109;1962943;-72
2021/04/19 02:23:44;;;;;;;14.18;7.94;;;;;;;7.74;66.09;99362.15;366385;108;1962055;-73
2021/04/19 02:24:54;;;;;;;14.24;8.04;;;;;;;7.71;66.21;99362.55;368382;108;1963078;-71
2021/04/19 02:26:19;;;;;;;12.70;7.85;;;;;;;7.69;66.22;99365.41;330299;108;1961994;-72
2021/04/19 02:27:28;;;;;;;11.86;7.18;;;;;;;7.68;66.42;99371.83;325776;108;2008967;-72
2021/04/19 02:28:38;;;;;;;12.05;7.73;;;;;;;7.66;66.45;99365.81;362061;109;1965016;-71
2021/04/19 02:29:53;;;;;;;10.51;6.62;;;;;;;7.66;66.44;99368.50;367826;108;1962016;-71
2021/04/19 02:31:06;;;;;;;10.64;6.68;;;;;;;7.64;66.45;99365.16;363024;108;1962936;-72
2021/04/19 02:32:18;;;;;;;9.82;6.06;;;;;;;7.66;66.60;99362.30;366836;108;1962040;-72
2021/04/19 02:33:28;;;;;;;10.53;6.39;;;;;;;7.64;66.83;99367.85;361731;109;1961916;-72
2021/04/19 02:34:35;;;;;;;10.29;5.77;;;;;;;7.66;66.90;99364.98;350359;109;1962021;-72
2021/04/19 02:35:44;;;;;;;10.05;5.04;;;;;;;7.69;66.92;99364.59;362562;110;1962071;-72
2021/04/19 02:36:52;;;;;;;9.71;5.74;;;;;;;7.70;66.94;99363.58;359174;111;1961984;-72
2021/04/19 02:37:59;;;;;;;10.54;5.49;;;;;;;7.73;66.91;99371.25;341770;109;2328686;-71
2021/04/19 02:39:06;;;;;;;9.83;5.75;;;;;;;7.79;66.72;99373.16;364865;109;1961942;-71
2021/04/19 02:40:14;;;;;;;11.60;6.81;;;;;;;7.82;66.79;99366.55;364915;108;1962078;-72
2021/04/19 02:41:22;;;;;;;12.37;6.50;;;;;;;7.79;66.53;99367.78;367389;108;1961980;-72
2021/04/19 02:42:29;;;;;;;11.00;6.19;;;;;;;7.79;66.84;99366.95;320626;108;2857042;-71
2021/04/19 02:43:37;;;;;;;10.42;5.71;;;;;;;7.84;66.50;99375.27;356195;113;1962006;-73
2021/04/19 02:44:51;;;;;;;10.89;6.24;;;;;;;7.81;66.48;99363.04;343965;110;2266959;-72
2021/04/19 02:46:11;;;;;;;9.33;5.95;;;;;;;7.81;66.76;99365.73;357572;113;1962929;-73
2021/04/19 02:47:21;;;;;;;10.29;5.81;;;;;;;7.83;66.52;99366.38;326014;109;2553051;-73
2021/04/19 02:48:31;;;;;;;12.72;7.03;;;;;;;7.83;66.44;99368.20;374637;106;1961973;-73
2021/04/19 02:49:39;;;;;;;12.96;7.83;;;;;;;7.85;66.43;99364.30;370158;106;1961975;-73
2021/04/19 02:50:45;;;;;;;18.89;13.24;;;;;;;7.85;66.49;99369.67;373657;106;1960873;-72
2021/04/19 02:51:52;;;;;;;16.83;11.87;;;;;;;7.85;66.59;99369.67;373891;106;1961969;-72
2021/04/19 02:52:59;;;;;;;20.16;13.21;;;;;;;7.84;66.46;99365.34;371051;106;1962905;-72
2021/04/19 02:54:05;;;;;;;17.36;12.18;;;;;;;7.82;66.68;99363.87;374869;105;1961931;-72
2021/04/19 02:55:13;;;;;;;18.40;13.07;;;;;;;7.80;66.59;99371.29;373770;106;1962046;-73
2021/04/19 02:56:19;;;;;;;18.65;12.38;;;;;;;7.85;66.84;99363.47;372851;106;1964996;-72
2021/04/19 02:57:29;;;;;;;23.18;15.87;;;;;;;7.83;66.50;99360.14;375001;106;1961943;-72
2021/04/19 02:58:51;;;;;;;25.28;18.09;;;;;;;7.79;66.56;99359.71;374207;105;1961955;-73
2021/04/19 03:00:01;;;;;;;24.02;17.70;;;;;;;7.79;66.32;99359.71;373712;106;1961983;-71
2021/04/19 03:01:09;;;;;;;24.07;17.72;;;;;;;7.74;66.62;99362.15;332589;106;2010957;-72
2021/04/19 03:02:17;;;;;;;27.33;18.80;;;;;;;7.72;66.59;99366.88;374768;106;1961914;-71
2021/04/19 03:03:29;;;;;;;27.54;18.07;;;;;;;7.67;66.91;99366.63;374356;106;1961961;-71
2021/04/19 03:04:39;;;;;;;26.37;18.63;;;;;;;7.65;66.80;99364.16;358229;106;1962925;-72
2021/04/19 03:05:48;;;;;;;27.39;18.21;;;;;;;7.63;66.66;99363.52;365704;106;1964956;-72
2021/04/19 03:06:57;;;;;;;24.54;16.53;;;;;;;7.64;66.51;99365.16;373648;106;1964939;-73
2021/04/19 03:08:08;;;;;;;22.03;15.66;;;;;;;7.63;66.65;99368.06;375009;106;1961996;-73
2021/04/19 03:09:21;;;;;;;24.79;15.90;;;;;;;7.63;66.82;99362.69;372632;106;1961965;-72
2021/04/19 03:10:30;;;;;;;23.19;15.98;;;;;;;7.60;66.95;99371.14;375020;106;1961986;-72
2021/04/19 03:11:39;;;;;;;23.91;16.50;;;;;;;7.60;66.92;99363.08;339068;106;1961920;-71
2021/04/19 03:12:49;;;;;;;25.97;17.48;;;;;;;7.57;66.80;99369.67;345430;106;2454097;-72
2021/04/19 03:13:58;;;;;;;21.48;15.83;;;;;;;7.56;66.68;99368.00;306382;106;2242223;-72
2021/04/19 03:15:09;;;;;;;19.81;14.46;;;;;;;7.56;66.66;99361.80;350686;106;1962926;-72
2021/04/19 03:16:23;;;;;;;20.57;14.56;;;;;;;7.57;66.63;99361.61;368957;107;1962026;-72
2021/04/19 03:17:30;;;;;;;;;;;;;;;7.57;66.48;99366.13;324174;106;2805909;-73
2021/04/19 03:18:44;;;;;;;20.31;13.34;;;;;;;7.53;66.50;99364.88;367545;106;1960953;-72
2021/04/19 03:20:03;;;;;;;22.02;12.63;;;;;;;7.53;66.42;99372.94;374342;106;1969970;-72
2021/04/19 03:21:19;;;;;;;28.64;17.42;;;;;;;7.51;66.44;99369.61;363611;106;1968981;-72
2021/04/19 03:22:37;;;;;;;26.19;19.74;;;;;;;7.63;65.42;99378.81;373291;106;1964215;-72
2021/04/19 03:23:50;;;;;;;28.78;18.35;;;;;;;7.51;65.34;99375.80;365934;108;1963971;-72
2021/04/19 03:24:59;;;;;;;19.04;13.06;;;;;;;7.49;65.25;99376.02;375327;106;1961999;-73
2021/04/19 03:26:08;;;;;;;31.76;20.90;;;;;;;7.63;65.26;99378.81;371398;106;1962001;-73
2021/04/19 03:27:17;;;;;;;25.08;17.57;;;;;;;7.57;64.90;99380.43;343688;106;1962952;-72
2021/04/19 03:28:25;;;;;;;26.42;18.01;;;;;;;7.55;65.20;99381.64;355633;106;1962987;-71
2021/04/19 03:29:35;;;;;;;30.76;20.43;;;;;;;7.49;65.44;99384.08;323429;106;2799964;-72
2021/04/19 03:30:44;;;;;;;28.22;18.08;;;;;;;7.40;65.09;99387.08;374240;106;1961954;-72
2021/04/19 03:31:55;;;;;;;28.35;20.40;;;;;;;7.33;65.46;99378.11;372384;106;1962034;-72
2021/04/19 03:33:04;;;;;;;17.26;11.82;;;;;;;7.28;65.39;99384.09;373123;106;1961964;-72
2021/04/19 03:34:19;;;;;;;21.84;14.15;;;;;;;7.27;66.18;99379.72;373917;106;1962062;-72
2021/04/19 03:35:28;;;;;;;21.44;11.71;;;;;;;7.29;66.38;99379.54;369666;106;1962035;-73
2021/04/19 03:36:38;;;;;;;19.01;12.36;;;;;;;7.33;66.28;99383.48;365705;108;1962015;-72
2021/04/19 03:37:46;;;;;;;19.49;14.76;;;;;;;7.30;66.20;99379.33;357721;108;1969968;-72
2021/04/19 03:38:53;;;;;;;26.62;17.25;;;;;;;7.32;66.02;99385.34;352729;106;2282950;-73
2021/04/19 03:40:05;;;;;;;18.77;12.32;;;;;;;7.33;66.10;99378.11;373216;106;1962975;-73
2021/04/19 03:41:14;;;;;;;20.44;13.28;;;;;;;7.28;66.03;99367.97;306150;106;2244118;-72
2021/04/19 03:42:36;;;;;;;18.10;12.03;;;;;;;7.35;66.26;99378.76;372756;106;1961935;-72
2021/04/19 03:43:47;;;;;;;21.50;12.98;;;;;;;7.39;66.07;99377.36;368304;107;1962947;-72
2021/04/19 03:44:55;;;;;;;17.86;11.76;;;;;;;7.41;65.93;99377.98;363047;109;1962032;-72
2021/04/19 03:46:10;;;;;;;17.88;10.56;;;;;;;7.43;65.81;99370.56;362137;109;1962017;-73
2021/04/19 03:47:23;;;;;;;17.51;11.37;;;;;;;7.43;66.00;99373.25;335712;109;2450933;-72
2021/04/19 03:48:34;;;;;;;17.11;10.38;;;;;;;7.45;66.00;99373.90;322277;110;2652899;-72
2021/04/19 03:49:46;;;;;;;14.86;9.92;;;;;;;7.48;66.07;99370.82;363886;109;1962099;-72
2021/04/19 03:50:59;;;;;;;14.55;9.51;;;;;;;7.52;66.00;99366.73;366248;109;1961864;-72
2021/04/19 03:52:10;;;;;;;15.11;8.76;;;;;;;7.58;65.93;99365.12;364970;109;1962049;-73
2021/04/19 03:53:17;;;;;;;15.16;9.56;;;;;;;7.65;65.88;99366.02;343778;109;2285098;-72
2021/04/19 03:54:26;;;;;;;13.95;8.43;;;;;;;7.65;65.82;99360.64;364491;109;1964947;-72
2021/04/19 03:55:34;;;;;;;14.54;8.95;;;;;;;7.69;65.75;99370.80;364300;109;1963004;-72
2021/04/19 03:56:42;;;;;;;14.38;8.00;;;;;;;7.67;65.71;99372.02;340131;109;2372949;-72
2021/04/19 03:57:52;;;;;;;12.46;7.94;;;;;;;7.70;65.75;99374.34;361873;109;1963027;-72
2021/04/19 03:59:06;;;;;;;14.44;7.82;;;;;;;7.69;65.85;99369.97;330858;106;2874927;-72
2021/04/19 04:00:22;;;;;;;12.46;7.31;;;;;;;7.71;65.82;99373.30;356269;107;1963911;-73
2021/04/19 04:01:42;;;;;;;11.02;6.35;;;;;;;7.79;65.77;99365.09;370114;107;1961999;-72
2021/04/19 04:02:52;;;;;;;14.22;7.66;;;;;;;7.84;65.67;99365.34;362636;110;1961936;-73
2021/04/19 04:04:21;;;;;;;10.46;5.04;;;;;;;7.89;65.61;99368.27;335634;110;1961912;-74
2021/04/19 04:05:39;;;;;;;10.73;6.23;;;;;;;7.96;65.53;99367.48;362720;110;1961051;-73
2021/04/19 04:06:51;;;;;;;12.33;6.57;;;;;;;7.99;65.42;99365.25;340868;110;1963964;-72
2021/04/19 04:08:00;;;;;;;11.07;6.18;;;;;;;8.06;65.21;99371.48;362996;110;1962036;-72
2021/04/19 04:09:07;;;;;;;12.98;7.02;;;;;;;8.08;65.09;99369.43;362051;110;1961983;-73
2021/04/19 04:10:17;;;;;;;10.98;6.83;;;;;;;8.12;64.76;99370.71;326819;110;2583081;-72
2021/04/19 04:11:25;;;;;;;12.59;6.88;;;;;;;8.15;64.86;99366.80;317157;106;2828948;-72
2021/04/19 04:12:36;;;;;;;;;;;;;;;8.19;64.75;99365.36;361646;110;1962988;-73
2021/04/19 04:13:42;;;;;;;10.35;5.21;;;;;;;8.26;64.68;99360.03;372079;107;1961947;-73
2021/04/19 04:14:51;;;;;;;12.38;7.74;;;;;;;8.28;64.47;99361.49;335728;107;2232943;-73
2021/04/19 04:15:59;;;;;;;10.65;6.33;;;;;;;8.28;64.37;99363.33;326085;107;2242023;-73
2021/04/19 04:17:07;;;;;;;13.17;7.49;;;;;;;8.33;64.42;99360.87;361342;111;1964935;-72
2021/04/19 04:18:24;;;;;;;11.05;5.92;;;;;;;8.35;64.27;99354.27;340888;112;1964803;-73
2021/04/19 04:19:30;;;;;;;13.60;7.59;;;;;;;8.39;64.08;99360.13;361895;110;1962985;-73
2021/04/19 04:20:42;;;;;;;11.06;6.07;;;;;;;8.42;64.13;99365.11;361772;110;1963989;-73
2021/04/19 04:21:49;;;;;;;10.66;5.80;;;;;;;8.37;63.77;99368.36;332283;110;1968991;-73
2021/04/19 04:23:01;;;;;;;12.88;6.97;;;;;;;8.43;63.88;99368.63;361590;109;1961930;-73
2021/04/19 04:24:08;;;;;;;14.59;8.96;;;;;;;8.45;63.84;99366.57;358845;107;1962030;-72
2021/04/19 04:25:16;;;;;;;11.80;6.52;;;;;;;8.50;63.68;99375.70;367723;107;1961994;-72
2021/04/19 04:26:23;;;;;;;14.33;7.21;;;;;;;8.51;63.59;99363.08;338070;107;1962053;-73
2021/04/19 04:27:29;;;;;;;11.91;7.63;;;;;;;8.51;63.57;99371.15;362216;109;1961954;-74
2021/04/19 04:28:35;;;;;;;11.92;5.98;;;;;;;8.56;63.46;99372.20;363632;109;1964053;-74
2021/04/19 04:29:43;;;;;;;13.39;7.31;;;;;;;8.57;63.47;99373.89;350104;107;1963350;-72
2021/04/19 04:30:54;;;;;;;13.50;8.02;;;;;;;8.59;63.42;99371.80;363368;107;1961996;-72
2021/04/19 04:32:01;;;;;;;14.56;8.11;;;;;;;8.61;63.38;99373.48;369943;108;1961943;-72
2021/04/19 04:33:08;;;;;;;15.57;8.67;;;;;;;8.59;63.43;99377.19;347322;107;1961948;-72
2021/04/19 04:34:16;;;;;;;14.75;8.74;;;;;;;8.61;63.52;99376.17;369453;107;1962071;-73
2021/04/19 04:35:24;;;;;;;14.78;8.74;;;;;;;8.63;63.56;99376.81;369010;107;1962045;-74
2021/04/19 04:36:36;;;;;;;14.05;8.08;;;;;;;8.64;63.55;99373.08;367799;107;1961951;-73
2021/04/19 04:37:43;;;;;;;15.21;9.29;;;;;;;8.68;63.60;99377.87;368943;107;1965009;-73
2021/04/19 04:38:54;;;;;;;15.37;8.08;;;;;;;8.71;63.45;99377.46;368797;107;1961001;-73
2021/04/19 04:40:06;;;;;;;10.82;6.83;;;;;;;8.76;63.20;99376.87;369002;109;1961989;-74
2021/04/19 04:41:13;;;;;;;14.02;7.34;;;;;;;8.79;63.04;99376.45;361892;109;1962062;-73
2021/04/19 04:42:22;;;;;;;12.83;8.26;;;;;;;8.82;62.98;99381.44;364446;107;1962972;-73
2021/04/19 04:43:42;;;;;;;12.55;7.49;;;;;;;8.85;63.04;99378.34;369054;107;1961906;-73
2021/04/19 04:44:49;;;;;;;12.42;7.59;;;;;;;8.87;62.92;99376.28;357801;110;1962024;-73
2021/04/19 04:46:08;;;;;;;12.82;8.27;;;;;;;8.92;62.80;99373.81;357783;111;1961931;-73
2021/04/19 04:47:41;;;;;;;14.54;7.71;;;;;;;8.97;62.73;99383.95;334710;114;1961860;-73
2021/04/19 04:49:10;;;;;;;13.06;7.47;;;;;;;9.01;62.65;99385.23;332718;114;1962989;-73
2021/04/19 04:50:24;;;;;;;13.97;7.53;;;;;;;9.05;62.69;99382.95;347340;114;1962049;-73
2021/04/19 04:51:33;;;;;;;11.79;7.20;;;;;;;9.10;62.58;99380.48;308326;114;2661937;-73
2021/04/19 04:52:52;;;;;;;13.34;7.72;;;;;;;9.13;62.42;99388.15;348777;114;1962067;-73
2021/04/19 04:54:10;;;;;;;15.56;7.74;;;;;;;9.18;62.46;99382.98;348898;106;1963023;-72
2021/04/19 04:55:17;;;;;;;14.97;8.84;;;;;;;9.23;62.18;99377.81;325555;111;1961975;-73
2021/04/19 04:56:27;;;;;;;15.24;8.06;;;;;;;9.27;62.18;99376.38;356623;112;1964348;-73
2021/04/19 04:57:34;;;;;;;12.42;8.24;;;;;;;9.36;62.03;99377.01;357809;112;1961958;-74
2021/04/19 04:58:42;;;;;;;12.24;7.11;;;;;;;9.39;61.86;99372.06;325141;111;2534978;-73
2021/04/19 04:59:52;;;;;;;13.59;7.18;;;;;;;9.45;61.84;99376.62;357044;112;1961929;-73
2021/04/19 05:01:00;;;;;;;13.11;7.24;;;;;;;9.53;61.30;99377.47;356747;111;1961996;-73
2021/04/19 05:02:08;;;;;;;12.79;7.19;;;;;;;9.58;61.30;99372.25;347243;115;1963005;-73
2021/04/19 05:03:15;;;;;;;13.32;7.09;;;;;;;9.64;61.05;99374.97;357410;112;1963065;-72
2021/04/19 05:04:22;;;;;;;11.94;6.38;;;;;;;9.68;61.01;99376.23;357915;111;1961983;-73
2021/04/19 05:05:28;;;;;;;11.69;6.46;;;;;;;9.72;60.77;99373.94;357398;111;1962063;-73
2021/04/19 05:06:35;;;;;;;10.69;5.92;;;;;;;9.74;60.72;99377.27;323433;112;2545975;-73
2021/04/19 05:07:42;;;;;;;10.87;6.23;;;;;;;9.76;60.64;99379.73;357440;111;1961959;-72
2021/04/19 05:08:49;;;;;;;12.55;6.28;;;;;;;9.79;60.72;99371.22;358291;111;1962055;-73
2021/04/19 05:09:54;;;;;;;10.16;6.56;;;;;;;9.79;60.17;99377.47;312576;112;2031091;-73
2021/04/19 05:11:00;;;;;;;9.69;5.76;;;;;;;9.85;60.51;99381.20;350619;111;1961953;-73
2021/04/19 05:12:06;;;;;;;10.49;5.90;;;;;;;9.89;60.20;99374.33;357412;112;1962154;-73
2021/04/19 05:13:16;;;;;;;10.02;5.61;;;;;;;9.89;59.96;99372.45;356636;112;1961762;-73
2021/04/19 05:14:26;;;;;;;10.89;5.78;;;;;;;9.91;60.18;99374.96;356655;112;1963977;-73
2021/04/19 05:15:35;;;;;;;10.73;6.14;;;;;;;9.96;60.09;99383.27;357795;112;1961987;-74
2021/04/19 05:16:44;;;;;;;12.53;6.11;;;;;;;9.99;60.12;99380.14;357427;111;1962020;-72
2021/04/19 05:17:49;;;;;;;11.74;6.28;;;;;;;10.02;60.17;99374.32;339987;111;1961997;-72
2021/04/19 05:18:58;;;;;;;8.92;5.29;;;;;;;10.08;59.96;99378.91;367811;105;1961965;-72
2021/04/19 05:21:15;;;;;;;12.27;6.21;;;;;;;10.22;59.70;99371.60;395153;104;1986012;-75